Flight Track Log - Related Links

Times and Time Zones

All times are in EDT time to prevent confusion due to time zone crossing. See the SWA580 flight status page for this flight to view local times or setup timezone preferences in your user account.

Time Position Orientation Groundspeed Altitude Reporting Facility
EDT Latitude Longitude Course Direction KTS MPH feet Rate Location/Type
Mon 12:47:17 AM 37.6333 -122.3667 157° South 147 169 1,300  Level Northern TRACON
Mon 12:52:21 AM 37.4678 -122.2792 104° East 334 384 19,000 3,173 Climbing Oakland Center
Mon 12:53:22 AM 37.4400 -122.1428 106° East 354 407 20,600 2,430 Climbing Oakland Center
Mon 12:54:22 AM 37.4081 -122.0036 106° East 383 441 23,900 3,076 Climbing Oakland Center
Mon 12:55:21 AM 37.3736 -121.8569 106° East 416 479 26,700 2,975 Climbing Oakland Center
Mon 12:56:21 AM 37.3331 -121.6839 106° East 453 521 29,800 2,100 Climbing Oakland Center
Mon 12:57:21 AM 37.3006 -121.5375 108° East 458 527 30,900 1,100 Climbing Oakland Center
Mon 12:58:21 AM 37.2636 -121.3911 106° East 458 527 32,000 1,050 Climbing Oakland Center
Mon 12:59:21 AM 37.2306 -121.2447 106° East 446 513 33,000 496 Climbing Oakland Center
Mon 01:00:22 AM 37.1975 -121.1014 106° East 436 502 33,000  Level Oakland Center
Mon 01:01:21 AM 37.1642 -120.9553 107° East 431 496 33,000  Level Oakland Center
Mon 01:02:21 AM 37.1286 -120.8094 107° East 431 496 33,000  Level Oakland Center
Mon 01:03:21 AM 37.0928 -120.6611 99° East 436 502 33,000  Level Oakland Center
Mon 01:04:21 AM 37.0736 -120.5075 95° East 436 502 33,000  Level Oakland Center
Mon 01:05:21 AM 37.0625 -120.3567 92° East 436 502 33,000  Level Oakland Center
Mon 01:06:21 AM 37.0572 -120.2006 94° East 436 502 33,000  Level Oakland Center
Mon 01:07:21 AM 37.0481 -120.0550 95° East 435 501 33,000  Level Oakland Center
Mon 01:08:21 AM 37.0383 -119.9042 94° East 435 501 33,000  Level Oakland Center
Mon 01:09:21 AM 37.0306 -119.7481 95° East 440 506 33,000  Level Oakland Center
Mon 01:10:21 AM 37.0183 -119.5897 95° East 447 514 33,000  Level Oakland Center
Mon 01:11:21 AM 37.0081 -119.4364 95° East 447 514 33,000 -297 Level Oakland Center
Mon 01:22:09 AM 36.8889 -117.7906 112° Southeast 429 494 29,500 -290 Descending Los Center
Mon 01:25:09 AM 36.7481 -117.3572 115° Southeast 446 513 29,000 -125 Descending Los Center
Mon 01:26:09 AM 36.6992 -117.2244 115° Southeast 434 499 29,000  Level Los Center
Mon 01:27:09 AM 36.6461 -117.0839 115° Southeast 434 499 29,000  Level Los Center
Mon 01:28:09 AM 36.5950 -116.9464 116° Southeast 434 499 29,000  Level Los Center
Mon 01:29:09 AM 36.5500 -116.8294 115° Southeast 432 497 29,000  Level Los Center
Mon 01:30:09 AM 36.4881 -116.6611 115° Southeast 447 514 29,000 -500 Level Los Center
Mon 01:31:09 AM 36.4344 -116.5189 115° Southeast 453 521 28,000 -2,000 Descending Los Center
Mon 01:32:09 AM 36.3828 -116.3817 116° Southeast 445 512 25,000 -2,950 Descending Los Center
Mon 01:33:09 AM 36.3328 -116.2528 115° Southeast 431 496 22,100 -2,793 Descending Los Center
Mon 01:34:05 AM 36.2911 -116.1444 116° Southeast 398 458 19,600 -2,755 Descending Los Center
Mon 01:34:47 AM 36.2558 -116.0544 114° Southeast 383 441 17,600 -1,922 Descending Los Center
Mon 01:35:48 AM 36.2161 -115.9461 113° Southeast 349 402 16,300 -787 Descending Los Center
Mon 01:36:49 AM 36.1803 -115.8433 111° Southeast 324 373 16,000 -141 Descending Los Center
Mon 01:37:56 AM 36.1444 -115.7303 111° Southeast 313 360 16,000 -557 Level Los Center
Mon 01:39:09 AM 36.1108 -115.6200 115° Southeast 310 357 14,700 -1,357 Descending Los Center
Mon 01:39:51 AM 36.0833 -115.5456 110° East 302 348 13,400 -1,650 Descending Los Center
Mon 01:41:09 AM 36.0494 -115.4278 106° East 310 357 11,400 -1,043 Descending Los Center
Mon 01:42:09 AM 36.0281 -115.3331 97° East 298 343 11,000 -923 Descending Los Center
Mon 01:42:53 AM 36.0211 -115.2586 95° East 270 311 9,800 -1,600 Descending Los Center
Mon 01:43:54 AM 36.0142 -115.1661 68° East 266 306 8,200 -1,377 Descending Los Center
Mon 01:44:55 AM 36.0386 -115.0914 21° North 237 273 7,000 -934 Descending Los Center
Mon 01:45:56 AM 36.0928 -115.0650 358° North 206 237 6,300 -1,041 Descending Los Center
Mon 01:46:56 AM 36.1386 -115.0669 276° West 190 219 4,900 -1,388 Descending Los Center
Mon 01:47:57 AM 36.1433 -115.1261 209° Southwest 165 190 3,500 -1,279 Descending Los Center
Mon 01:48:58 AM 36.1017 -115.1550 197° South 157 181 2,300 -591 Descending Los Center
Mon 01:50:09 AM 36.0808 -115.1628 360° North 101 116 2,200 -46 Descending Los Center
Mon 01:51:09 AM 36.0831 -115.1628 203° Southwest 53 61 2,200 -50 Level Los Center
Mon 01:52:09 AM 36.0728 -115.1681 207° Southwest 36 41 2,100 13,400 Descending Los Center
Mon 01:53:09 AM 36.0644 -115.1733 89° East 36 41 29,000 26,900 Climbing Los Center
Mon 02:00:32 AM 36.0667 -114.9127 272° West  Level FlightAware
Mon 02:01:32 AM 36.0703 -115.0536 277° West  Level FlightAware
Mon 02:02:32 AM 36.0843 -115.1957 116° Southeast  Level Estimated
Mon 02:03:32 AM 36.0667 -115.1500 352° North  Level FlightAware
Mon 02:04:32 AM 36.1813 -115.1693 352° North  Level Estimated

Login

Don't have an account? Register now (free) for customized features, flight alerts, and more!